Time;durP1;ratioP1;P1;durP2;ratioP2;P2;SDS_P1;SDS_P2;PMS_P1;PMS_P2;Temp;Humidity;BMP_temperature;BMP_pressure;BME280_temperature;BME280_humidity;BME280_pressure;Samples;Min_cycle;Max_cycle;Signal;HPM_P1;HPM_P2
2023/11/16 00:00:56;;;;;;;13.00;3.30;;;8.70;99.90;;;;;;4899627;29;20226;-80
2023/11/16 00:03:23;;;;;;;9.07;2.88;;;8.70;99.90;;;;;;4900523;29;20239;-80
2023/11/16 00:05:49;;;;;;;10.52;2.80;;;8.70;99.90;;;;;;4916232;29;20175;-80
2023/11/16 00:08:16;;;;;;;10.73;3.45;;;8.70;99.90;;;;;;4900225;29;20288;-80
2023/11/16 00:10:42;;;;;;;13.70;3.03;;;8.70;99.90;;;;;;4917152;29;20618;-79
2023/11/16 00:13:09;;;;;;;8.23;3.27;;;8.70;99.90;;;;;;4900499;29;20182;-79
2023/11/16 00:15:35;;;;;;;11.80;2.90;;;8.80;99.90;;;;;;4885560;29;20572;-80
2023/11/16 00:18:03;;;;;;;14.40;3.37;;;8.70;99.90;;;;;;4916763;29;20249;-80
2023/11/16 00:20:29;;;;;;;13.90;3.43;;;8.70;99.90;;;;;;4917311;29;20190;-79
2023/11/16 00:22:55;;;;;;;14.20;3.63;;;8.70;99.90;;;;;;4917138;29;20205;-80
2023/11/16 00:25:21;;;;;;;8.50;2.80;;;8.70;99.90;;;;;;4915794;29;20257;-81
2023/11/16 00:27:46;;;;;;;12.18;3.03;;;8.70;99.90;;;;;;4914922;29;20214;-79
2023/11/16 00:30:13;;;;;;;12.77;3.40;;;8.70;99.90;;;;;;4916987;29;20543;-80
2023/11/16 00:32:39;;;;;;;10.70;2.93;;;8.70;99.90;;;;;;4917367;29;20191;-81
2023/11/16 00:35:06;;;;;;;7.32;2.42;;;8.70;99.90;;;;;;4900111;29;20239;-80
2023/11/16 00:37:32;;;;;;;12.48;3.10;;;8.70;99.90;;;;;;4916685;29;20630;-82
2023/11/16 00:39:58;;;;;;;8.10;2.60;;;8.70;99.90;;;;;;4917168;29;20281;-80
2023/11/16 00:42:24;;;;;;;11.33;3.00;;;8.70;99.90;;;;;;4917100;29;20674;-81
2023/11/16 00:44:50;;;;;;;11.97;2.87;;;8.70;99.90;;;;;;4916686;29;20642;-81
2023/11/16 00:47:19;;;;;;;10.15;2.38;;;8.70;99.90;;;;;;4916620;29;20232;-81
2023/11/16 00:49:46;;;;;;;11.25;2.95;;;8.70;99.90;;;;;;4890212;29;20219;-80
2023/11/16 00:52:11;;;;;;;9.83;3.20;;;8.60;99.90;;;;;;4899975;29;20194;-82
2023/11/16 00:54:37;;;;;;;10.27;2.95;;;8.60;99.90;;;;;;4899964;29;20588;-80
2023/11/16 00:57:03;;;;;;;10.20;3.00;;;8.60;99.90;;;;;;4913112;29;20215;-82
2023/11/16 00:59:30;;;;;;;8.90;2.80;;;8.60;99.90;;;;;;4916985;29;20194;-81
2023/11/16 01:01:58;;;;;;;10.82;2.90;;;8.60;99.90;;;;;;4916806;29;20245;-79
2023/11/16 01:04:25;;;;;;;8.43;2.97;;;8.60;99.90;;;;;;4916860;29;20175;-81
2023/11/16 01:06:51;;;;;;;12.53;2.77;;;8.60;99.90;;;;;;4916269;29;20214;-79
2023/11/16 01:09:17;;;;;;;11.70;3.27;;;8.60;99.90;;;;;;4915979;29;20186;-81
2023/11/16 01:11:43;;;;;;;14.03;3.10;;;8.60;99.90;;;;;;4917587;29;20564;-81
2023/11/16 01:14:09;;;;;;;8.37;2.93;;;8.60;99.90;;;;;;4920280;29;20190;-82
2023/11/16 01:16:41;;;;;;;9.80;3.33;;;8.60;99.90;;;;;;4903588;29;20186;-83
2023/11/16 01:19:08;;;;;;;17.88;3.47;;;8.60;99.90;;;;;;4903301;29;20249;-81
2023/11/16 01:21:41;;;;;;;10.07;3.43;;;8.60;99.90;;;;;;4888697;29;20188;-80
2023/11/16 01:24:11;;;;;;;11.50;3.20;;;8.60;99.90;;;;;;4905998;29;20179;-80
2023/11/16 01:26:41;;;;;;;8.17;2.80;;;8.60;99.90;;;;;;4916737;29;20202;-80
2023/11/16 01:29:16;;;;;;;9.82;3.05;;;8.50;99.90;;;;;;4920309;29;20250;-80
2023/11/16 01:31:42;;;;;;;9.23;2.70;;;8.50;99.90;;;;;;4903276;29;20190;-79
2023/11/16 01:34:12;;;;;;;10.97;2.60;;;8.50;99.90;;;;;;4887630;29;20614;-80
2023/11/16 01:36:38;;;;;;;11.73;3.20;;;8.50;99.90;;;;;;4919847;29;20253;-79
2023/11/16 01:39:05;;;;;;;10.70;3.35;;;8.50;99.90;;;;;;4913017;29;20188;-79
2023/11/16 01:41:31;;;;;;;10.73;3.17;;;8.50;99.90;;;;;;4879722;29;20195;-79
2023/11/16 01:43:57;;;;;;;9.63;2.33;;;8.40;99.90;;;;;;4902990;29;20246;-82
2023/11/16 01:46:26;;;;;;;9.10;3.23;;;8.40;99.90;;;;;;4919963;29;20195;-81
2023/11/16 01:48:56;;;;;;;12.87;3.00;;;8.40;99.90;;;;;;4919806;29;20182;-82
2023/11/16 01:51:26;;;;;;;9.53;2.60;;;8.40;99.90;;;;;;4919706;29;20673;-82
2023/11/16 01:53:59;;;;;;;11.00;3.00;;;8.40;99.90;;;;;;4919814;29;20189;-83
2023/11/16 01:56:31;;;;;;;6.43;2.60;;;8.40;99.90;;;;;;4916438;29;20179;-79
2023/11/16 01:59:01;;;;;;;6.90;2.70;;;8.40;99.90;;;;;;4896478;29;20517;-79
2023/11/16 02:01:30;;;;;;;8.33;3.13;;;8.40;99.90;;;;;;4919582;29;20642;-79
2023/11/16 02:03:56;;;;;;;11.57;2.73;;;8.40;99.90;;;;;;4919643;29;20197;-82
2023/11/16 02:06:25;;;;;;;13.43;3.70;;;8.40;99.90;;;;;;4919363;29;20202;-80
2023/11/16 02:08:51;;;;;;;11.93;3.42;;;8.40;99.90;;;;;;4919418;29;20192;-80
2023/11/16 02:11:17;;;;;;;13.97;3.33;;;8.30;99.90;;;;;;4919507;29;20740;-79
2023/11/16 02:13:43;;;;;;;10.30;3.17;;;8.30;99.90;;;;;;4919579;29;20197;-81
2023/11/16 02:16:09;;;;;;;6.87;2.50;;;8.40;99.90;;;;;;4902485;29;20246;-81
2023/11/16 02:18:34;;;;;;;9.77;2.70;;;8.40;99.90;;;;;;4918912;29;20234;-81
2023/11/16 02:21:03;;;;;;;10.63;3.07;;;8.40;99.90;;;;;;4918818;29;20194;-80
2023/11/16 02:23:31;;;;;;;11.07;2.83;;;8.50;99.90;;;;;;4918552;29;20182;-80
2023/11/16 02:25:57;;;;;;;9.17;2.33;;;8.50;99.90;;;;;;4915554;29;20194;-79
2023/11/16 02:28:23;;;;;;;10.20;2.60;;;8.50;99.90;;;;;;4919095;29;20194;-78
2023/11/16 02:30:50;;;;;;;10.07;3.23;;;8.50;99.90;;;;;;4919159;29;20511;-80
2023/11/16 02:33:16;;;;;;;9.63;3.10;;;8.50;99.90;;;;;;4916919;29;20190;-80
2023/11/16 02:35:43;;;;;;;6.87;2.50;;;8.40;99.90;;;;;;4918840;29;20179;-80
2023/11/16 02:38:17;;;;;;;8.70;2.75;;;8.50;99.90;;;;;;4918448;29;20174;-82
2023/11/16 02:40:43;;;;;;;13.67;2.77;;;8.50;99.90;;;;;;4918592;29;20193;-81
2023/11/16 02:43:08;;;;;;;9.83;3.07;;;8.50;99.90;;;;;;4918487;29;20189;-81
2023/11/16 02:45:34;;;;;;;11.63;3.53;;;8.40;99.90;;;;;;4918625;29;20273;-81
2023/11/16 02:48:06;;;;;;;8.77;3.17;;;8.40;99.90;;;;;;4918300;29;20246;-83
2023/11/16 02:50:32;;;;;;;8.47;2.93;;;8.40;99.90;;;;;;4918714;29;20195;-83
2023/11/16 02:52:58;;;;;;;10.53;3.33;;;8.50;99.90;;;;;;4901214;29;20202;-80
2023/11/16 02:55:24;;;;;;;10.60;3.27;;;8.50;99.90;;;;;;4916863;29;20205;-80
2023/11/16 02:57:51;;;;;;;10.47;3.17;;;8.50;99.90;;;;;;4916509;29;20182;-80
2023/11/16 03:00:19;;;;;;;8.43;2.97;;;8.50;99.90;;;;;;4918311;29;20194;-80
2023/11/16 03:02:45;;;;;;;7.27;3.30;;;8.50;99.90;;;;;;4918440;29;20183;-80
2023/11/16 03:05:14;;;;;;;11.90;3.17;;;8.50;99.90;;;;;;4901279;29;20190;-82
2023/11/16 03:07:41;;;;;;;10.90;3.13;;;8.50;99.90;;;;;;4917743;29;20274;-80
2023/11/16 03:10:13;;;;;;;11.63;2.97;;;8.50;99.90;;;;;;4918307;29;20186;-78
2023/11/16 03:12:40;;;;;;;6.20;2.80;;;8.50;99.90;;;;;;4918113;29;20270;-80
2023/11/16 03:17:44;;;;;;;10.00;3.22;;;8.60;99.90;;;;;;5072314;23;20235;-84
2023/11/16 03:20:12;;;;;;;8.02;2.97;;;8.60;99.90;;;;;;4896826;29;20195;-82
2023/11/16 03:22:39;;;;;;;7.97;2.93;;;8.60;99.90;;;;;;4897981;29;20191;-82
2023/11/16 03:25:07;;;;;;;14.87;4.17;;;8.60;99.90;;;;;;4901174;29;20201;-82
2023/11/16 03:27:34;;;;;;;11.47;3.07;;;8.60;99.90;;;;;;4901015;29;20637;-81
2023/11/16 03:30:00;;;;;;;8.53;3.27;;;8.60;99.90;;;;;;4901180;29;20584;-83
2023/11/16 03:32:25;;;;;;;9.67;3.30;;;8.60;99.90;;;;;;4900094;29;20194;-80
2023/11/16 03:34:52;;;;;;;8.67;3.13;;;8.60;99.90;;;;;;4917614;29;20182;-81
2023/11/16 03:37:19;;;;;;;13.18;3.28;;;8.60;99.90;;;;;;4917557;29;20255;-80
2023/11/16 03:39:48;;;;;;;6.87;2.83;;;8.60;99.90;;;;;;4917653;29;20349;-81
2023/11/16 03:42:14;;;;;;;11.32;3.25;;;8.60;99.90;;;;;;4900700;29;20186;-82
2023/11/16 03:44:40;;;;;;;11.40;3.30;;;8.60;99.90;;;;;;4900523;29;20210;-80
2023/11/16 03:47:06;;;;;;;10.13;3.23;;;8.60;99.90;;;;;;4909219;29;20253;-81
2023/11/16 03:49:32;;;;;;;9.87;3.17;;;8.60;99.90;;;;;;4917596;29;20645;-81
2023/11/16 03:51:58;;;;;;;9.43;2.90;;;8.60;99.90;;;;;;4917314;29;20186;-81
2023/11/16 03:54:24;;;;;;;8.43;3.13;;;8.60;99.90;;;;;;4917436;29;20189;-82
2023/11/16 03:56:53;;;;;;;11.10;3.72;;;8.60;99.90;;;;;;4900358;29;20214;-82
2023/11/16 03:59:21;;;;;;;9.17;3.27;;;8.60;99.90;;;;;;4900292;29;20190;-82
2023/11/16 04:01:50;;;;;;;9.67;3.17;;;8.60;99.90;;;;;;4917041;29;20193;-81
2023/11/16 04:04:17;;;;;;;13.65;3.05;;;8.60;99.90;;;;;;4917457;29;20201;-81
2023/11/16 04:06:43;;;;;;;10.82;3.20;;;8.60;99.90;;;;;;4909471;29;20241;-80
2023/11/16 04:09:09;;;;;;;10.32;3.10;;;8.60;99.90;;;;;;4900357;29;20220;-81
2023/11/16 04:11:47;;;;;;;12.17;3.40;;;8.60;99.90;;;;;;4917509;29;20218;-80
2023/11/16 04:14:15;;;;;;;7.20;2.83;;;8.60;99.90;;;;;;4917073;29;20866;-81
2023/11/16 04:16:41;;;;;;;12.23;2.85;;;8.60;99.90;;;;;;4892864;29;20245;-81
2023/11/16 04:19:09;;;;;;;11.27;2.90;;;8.60;99.90;;;;;;4917331;29;20182;-82
2023/11/16 04:21:36;;;;;;;13.25;3.05;;;8.60;99.90;;;;;;4900335;29;20198;-81
2023/11/16 04:24:08;;;;;;;11.20;3.47;;;8.60;99.90;;;;;;4917111;29;20237;-81
2023/11/16 04:26:37;;;;;;;10.77;3.50;;;8.60;99.90;;;;;;4900168;29;20222;-80
2023/11/16 04:29:05;;;;;;;8.68;3.10;;;8.60;99.90;;;;;;4916999;29;20259;-82
2023/11/16 04:31:34;;;;;;;9.80;3.43;;;8.70;99.90;;;;;;4916915;29;20773;-82
2023/11/16 04:34:00;;;;;;;11.75;2.50;;;8.60;99.90;;;;;;4899870;29;20186;-81
2023/11/16 04:36:28;;;;;;;9.50;2.97;;;8.70;99.90;;;;;;4917340;29;20185;-82
2023/11/16 04:38:57;;;;;;;17.05;2.97;;;8.60;99.90;;;;;;4897684;29;20697;-81
2023/11/16 04:41:24;;;;;;;9.80;3.00;;;8.70;99.90;;;;;;4900166;29;20509;-81
2023/11/16 04:43:50;;;;;;;13.43;3.20;;;8.60;99.90;;;;;;4899922;29;20186;-81
2023/11/16 04:46:16;;;;;;;9.23;3.03;;;8.60;99.90;;;;;;4916814;29;20249;-80
2023/11/16 04:48:46;;;;;;;7.93;2.80;;;8.50;99.90;;;;;;4920834;29;20194;-80
2023/11/16 04:51:20;;;;;;;8.83;2.90;;;8.60;99.90;;;;;;4896302;29;20183;-83
2023/11/16 04:53:50;;;;;;;12.67;2.83;;;8.60;99.90;;;;;;4903583;29;20198;-82
2023/11/16 04:56:17;;;;;;;14.75;3.20;;;8.60;99.90;;;;;;4920908;29;20222;-82
2023/11/16 04:58:45;;;;;;;9.23;2.72;;;8.60;99.90;;;;;;4880756;29;20319;-86
2023/11/16 05:01:14;;;;;;;6.17;2.20;;;8.60;99.90;;;;;;4889777;29;20193;-83
2023/11/16 05:03:40;;;;;;;8.88;1.95;;;8.60;99.90;;;;;;4913501;29;20231;-84
2023/11/16 05:06:06;;;;;;;5.07;2.10;;;8.60;99.90;;;;;;4900906;29;20187;-87
2023/11/16 05:08:32;;;;;;;6.50;1.70;;;8.50;99.90;;;;;;4899326;29;20194;-85
2023/11/16 05:10:58;;;;;;;7.60;1.70;;;8.60;99.90;;;;;;4911120;29;20190;-87
2023/11/16 05:13:23;;;;;;;6.53;1.53;;;8.60;99.90;;;;;;4916095;29;20206;-86
2023/11/16 05:15:50;;;;;;;10.70;1.60;;;8.50;99.90;;;;;;4913303;29;20190;-86
2023/11/16 05:18:16;;;;;;;4.80;1.40;;;8.50;99.90;;;;;;4921093;29;20242;-83
2023/11/16 05:20:42;;;;;;;5.25;1.40;;;8.50;99.90;;;;;;4920671;29;20178;-86
2023/11/16 05:23:09;;;;;;;4.65;1.33;;;8.50;99.90;;;;;;4896649;29;20193;-86
2023/11/16 05:25:35;;;;;;;3.70;1.10;;;8.50;99.90;;;;;;4896891;29;20179;-84
2023/11/16 05:28:06;;;;;;;5.97;0.93;;;8.50;99.90;;;;;;4892855;29;20689;-83
2023/11/16 05:30:33;;;;;;;1.73;1.00;;;8.50;99.90;;;;;;4916965;29;20194;-81
2023/11/16 05:33:00;;;;;;;7.03;1.33;;;8.50;99.90;;;;;;4895810;29;20186;-83
2023/11/16 05:35:27;;;;;;;7.53;1.27;;;8.40;99.90;;;;;;4903821;29;20190;-84
2023/11/16 05:37:52;;;;;;;9.87;1.87;;;8.40;99.90;;;;;;4902099;29;20194;-85
2023/11/16 05:40:18;;;;;;;5.13;1.13;;;8.40;99.90;;;;;;4898434;29;20269;-84
2023/11/16 05:42:44;;;;;;;7.37;1.77;;;8.30;99.90;;;;;;4917907;29;20186;-82
2023/11/16 05:45:12;;;;;;;6.63;1.57;;;8.40;99.90;;;;;;4903486;29;20183;-82
2023/11/16 05:47:39;;;;;;;7.33;1.60;;;8.40;99.90;;;;;;4904441;29;20207;-82
2023/11/16 05:50:06;;;;;;;5.77;1.43;;;8.30;99.90;;;;;;4901268;29;20208;-81
2023/11/16 05:52:32;;;;;;;4.50;1.17;;;8.10;99.90;;;;;;4916155;29;20210;-81
2023/11/16 05:54:59;;;;;;;4.63;1.33;;;8.20;99.90;;;;;;4919535;29;20217;-82
2023/11/16 05:57:25;;;;;;;7.40;1.70;;;8.20;99.90;;;;;;4902307;29;20186;-82
2023/11/16 05:59:50;;;;;;;3.95;1.40;;;8.30;99.90;;;;;;4918602;29;20185;-80
2023/11/16 06:02:17;;;;;;;9.13;1.67;;;8.30;99.90;;;;;;4902356;29;20281;-80
2023/11/16 06:04:42;;;;;;;3.60;1.30;;;8.30;99.90;;;;;;4919274;29;20644;-80
2023/11/16 06:07:08;;;;;;;4.10;1.17;;;8.30;99.90;;;;;;4919249;29;20206;-81
2023/11/16 06:09:34;;;;;;;5.27;0.90;;;8.20;99.90;;;;;;4918196;29;20562;-79
2023/11/16 06:12:00;;;;;;;6.10;1.13;;;8.20;99.90;;;;;;4919378;29;20179;-79
2023/11/16 06:14:25;;;;;;;5.93;1.07;;;8.20;99.90;;;;;;4902163;29;20622;-81
2023/11/16 06:16:51;;;;;;;4.07;1.10;;;8.10;99.90;;;;;;4901351;29;20297;-81
2023/11/16 06:19:18;;;;;;;5.60;1.77;;;8.10;99.90;;;;;;4913280;29;20246;-80
2023/11/16 06:21:44;;;;;;;4.23;0.90;;;8.10;99.90;;;;;;4901545;29;20539;-80
2023/11/16 06:24:10;;;;;;;5.20;1.20;;;8.10;99.90;;;;;;4918676;29;20174;-80
2023/11/16 06:26:36;;;;;;;3.53;1.10;;;8.00;99.90;;;;;;4918961;29;20201;-81
2023/11/16 06:29:02;;;;;;;6.20;1.10;;;8.00;99.90;;;;;;4918918;29;20190;-82
2023/11/16 06:31:29;;;;;;;4.93;1.03;;;8.00;99.90;;;;;;4901895;29;20273;-81
2023/11/16 06:33:55;;;;;;;2.93;1.10;;;8.10;99.90;;;;;;4901849;29;20182;-80
2023/11/16 06:36:25;;;;;;;5.73;1.00;;;8.00;99.90;;;;;;4918894;29;20179;-81
2023/11/16 06:38:51;;;;;;;3.33;0.80;;;8.00;99.90;;;;;;4917197;29;20257;-81
2023/11/16 06:41:17;;;;;;;5.47;1.00;;;8.00;99.90;;;;;;4901966;29;20638;-80
2023/11/16 06:43:42;;;;;;;5.20;1.30;;;8.00;99.90;;;;;;4918489;29;20182;-79
2023/11/16 06:46:12;;;;;;;3.80;1.00;;;8.00;99.90;;;;;;4918286;29;20777;-81
2023/11/16 06:48:38;;;;;;;5.13;1.17;;;7.90;99.90;;;;;;4918300;29;20684;-81
2023/11/16 06:51:08;;;;;;;6.50;1.30;;;8.00;99.90;;;;;;4901614;29;20278;-81
2023/11/16 06:53:35;;;;;;;4.82;1.15;;;7.90;99.90;;;;;;4918881;29;20183;-81
2023/11/16 06:56:04;;;;;;;5.63;0.80;;;8.00;99.90;;;;;;4918601;29;20249;-81
2023/11/16 06:58:31;;;;;;;2.20;0.80;;;8.00;99.90;;;;;;4901581;29;20227;-82
2023/11/16 07:00:58;;;;;;;4.83;0.90;;;8.10;99.90;;;;;;4901103;29;20202;-81
2023/11/16 07:03:25;;;;;;;5.57;1.13;;;8.10;99.90;;;;;;4918305;29;20194;-81
2023/11/16 07:05:52;;;;;;;3.93;0.90;;;8.00;99.90;;;;;;4901736;29;20194;-81
2023/11/16 07:08:19;;;;;;;7.07;0.93;;;8.00;99.90;;;;;;4899759;29;20253;-81
2023/11/16 07:10:45;;;;;;;4.47;0.97;;;8.00;99.90;;;;;;4900843;29;20201;-82
2023/11/16 07:13:15;;;;;;;3.57;0.77;;;7.90;99.90;;;;;;4901521;29;20290;-81
2023/11/16 07:15:45;;;;;;;5.93;0.87;;;7.90;99.90;;;;;;4900996;29;20531;-80
2023/11/16 07:18:11;;;;;;;1.70;0.63;;;8.00;99.90;;;;;;4917949;29;20251;-82
2023/11/16 07:20:37;;;;;;;3.20;0.80;;;8.00;99.90;;;;;;4918471;29;20183;-83
2023/11/16 07:23:03;;;;;;;2.53;0.70;;;8.00;99.90;;;;;;4901351;29;20195;-81
2023/11/16 07:25:29;;;;;;;2.90;0.70;;;7.90;99.90;;;;;;4900846;29;20529;-81
2023/11/16 07:27:55;;;;;;;3.90;0.70;;;8.00;99.90;;;;;;4900687;29;20210;-81
2023/11/16 07:30:21;;;;;;;3.97;0.53;;;7.90;99.90;;;;;;4893361;29;20215;-81
2023/11/16 07:32:50;;;;;;;3.17;0.60;;;8.00;99.90;;;;;;4901001;29;20223;-81
2023/11/16 07:35:15;;;;;;;3.30;0.70;;;7.90;99.90;;;;;;4901367;29;20178;-83
2023/11/16 07:37:46;;;;;;;2.60;0.80;;;7.90;99.90;;;;;;4899984;29;20197;-80
2023/11/16 07:40:20;;;;;;;4.93;1.00;;;7.90;99.90;;;;;;4901430;29;20206;-84
2023/11/16 07:42:47;;;;;;;2.57;1.00;;;7.80;99.90;;;;;;4895945;29;20183;-84
2023/11/16 07:45:13;;;;;;;2.00;0.90;;;7.80;99.90;;;;;;4893414;29;20606;-82
2023/11/16 07:47:41;;;;;;;1.57;0.53;;;7.80;99.90;;;;;;4900830;29;20270;-82
2023/11/16 07:50:12;;;;;;;3.00;0.80;;;7.80;99.90;;;;;;4901342;29;20704;-83
2023/11/16 07:52:47;;;;;;;2.03;0.50;;;7.70;99.90;;;;;;4918237;29;20222;-85
2023/11/16 07:55:19;;;;;;;3.23;0.50;;;7.70;99.90;;;;;;4917916;29;20182;-84
2023/11/16 07:57:50;;;;;;;1.60;0.60;;;7.60;99.90;;;;;;4900842;29;20618;-82
2023/11/16 08:00:30;;;;;;;4.13;0.50;;;7.60;99.90;;;;;;4901284;29;20190;-82
2023/11/16 08:05:45;;;;;;;2.43;0.57;;;7.50;99.90;;;;;;4918032;29;20242;-80
2023/11/16 08:08:13;;;;;;;2.03;0.50;;;7.40;99.90;;;;;;4899272;29;20232;-83
2023/11/16 08:10:49;;;;;;;1.03;0.40;;;7.40;99.90;;;;;;4901019;29;20278;-84
2023/11/16 08:13:18;;;;;;;2.43;0.50;;;7.40;99.90;;;;;;4900811;29;20574;-82
2023/11/16 08:15:52;;;;;;;5.53;0.70;;;7.40;99.90;;;;;;4899956;29;20190;-81
2023/11/16 08:18:19;;;;;;;2.40;0.40;;;7.40;99.90;;;;;;4917074;29;20193;-82
2023/11/16 08:20:45;;;;;;;1.20;0.50;;;7.50;99.90;;;;;;4900025;29;20202;-82
2023/11/16 08:23:11;;;;;;;3.73;0.70;;;7.50;99.90;;;;;;4900135;29;20199;-83
2023/11/16 08:25:38;;;;;;;3.50;0.47;;;7.50;99.90;;;;;;4896251;29;20626;-82
2023/11/16 08:28:05;;;;;;;5.20;0.67;;;7.50;99.90;;;;;;4917106;29;20218;-81
2023/11/16 08:30:31;;;;;;;2.37;0.60;;;7.40;99.90;;;;;;4917267;29;20189;-81
2023/11/16 08:32:57;;;;;;;2.63;0.53;;;7.40;99.90;;;;;;4917001;29;20194;-82
2023/11/16 08:35:23;;;;;;;1.53;0.60;;;7.40;99.90;;;;;;4900244;29;20641;-81
2023/11/16 08:37:49;;;;;;;1.80;0.57;;;7.40;99.90;;;;;;4915643;29;20187;-81
2023/11/16 08:40:16;;;;;;;4.00;1.57;;;7.50;99.90;;;;;;4917427;29;20209;-82
2023/11/16 08:42:42;;;;;;;2.03;0.33;;;7.40;99.90;;;;;;4917381;29;20194;-82
2023/11/16 08:45:20;;;;;;;1.03;0.40;;;7.50;99.90;;;;;;4900258;29;20197;-83
2023/11/16 08:47:52;;;;;;;3.20;0.70;;;7.60;99.90;;;;;;4899771;29;20229;-82
2023/11/16 08:50:19;;;;;;;1.70;0.50;;;7.70;99.90;;;;;;4900367;29;20290;-82
2023/11/16 08:52:48;;;;;;;2.40;0.70;;;7.70;99.90;;;;;;4900408;29;20199;-82
2023/11/16 08:55:23;;;;;;;1.87;0.70;;;7.70;99.90;;;;;;4900197;29;20190;-81
2023/11/16 08:57:50;;;;;;;5.53;0.83;;;7.80;99.90;;;;;;4900001;29;20201;-82
2023/11/16 09:03:16;;;;;;;3.50;0.70;;;7.80;99.90;;;;;;4885162;29;20575;-82
2023/11/16 09:05:42;;;;;;;2.40;0.70;;;7.80;99.90;;;;;;4916889;29;20182;-82
2023/11/16 09:08:11;;;;;;;2.87;0.70;;;7.70;99.90;;;;;;4898172;29;20692;-82
2023/11/16 09:10:41;;;;;;;5.17;0.60;;;7.60;99.90;;;;;;4900084;29;20190;-83
2023/11/16 09:13:08;;;;;;;3.00;0.70;;;7.60;99.90;;;;;;4900076;29;20194;-81
2023/11/16 09:15:34;;;;;;;1.63;0.57;;;7.50;99.90;;;;;;4917003;29;20179;-82
2023/11/16 09:17:59;;;;;;;3.90;0.83;;;7.50;99.90;;;;;;4878493;29;20332;-83
2023/11/16 09:20:28;;;;;;;2.00;0.70;;;7.50;99.90;;;;;;4878346;29;20283;-81
2023/11/16 09:22:57;;;;;;;2.73;1.10;;;7.50;99.90;;;;;;4879317;29;20531;-83
2023/11/16 09:25:25;;;;;;;4.30;0.63;;;7.50;99.90;;;;;;4877909;29;20654;-84
2023/11/16 09:27:54;;;;;;;2.77;0.70;;;7.40;99.90;;;;;;4871619;29;20211;-81
2023/11/16 09:30:22;;;;;;;3.97;0.93;;;7.50;99.90;;;;;;4875539;29;20184;-82
2023/11/16 09:32:52;;;;;;;2.93;0.87;;;7.60;99.90;;;;;;4878531;29;20294;-81
2023/11/16 09:35:23;;;;;;;3.63;0.63;;;7.70;99.90;;;;;;4882541;29;20623;-83
2023/11/16 09:37:54;;;;;;;2.07;0.63;;;7.80;99.90;;;;;;4875082;29;20184;-83
2023/11/16 09:40:30;;;;;;;5.80;0.70;;;7.90;99.90;;;;;;4865239;29;20276;-82
2023/11/16 09:43:16;;;;;;;3.17;0.63;;;8.00;99.90;;;;;;4870369;29;20196;-82
2023/11/16 09:45:49;;;;;;;2.40;0.70;;;7.90;99.90;;;;;;4864054;29;20250;-81
2023/11/16 09:48:17;;;;;;;1.67;0.70;;;8.00;99.90;;;;;;4868703;29;20212;-81
2023/11/16 09:50:48;;;;;;;4.07;0.80;;;8.00;99.90;;;;;;4878094;29;20647;-82
2023/11/16 09:53:20;;;;;;;3.37;0.60;;;8.00;99.90;;;;;;4882549;29;20698;-81
2023/11/16 09:55:54;;;;;;;1.50;0.50;;;8.00;99.90;;;;;;4880817;29;20210;-80
2023/11/16 09:58:23;;;;;;;4.00;0.60;;;8.00;99.90;;;;;;4872306;29;20227;-80
2023/11/16 10:00:57;;;;;;;4.17;0.70;;;8.10;99.90;;;;;;4867625;29;20279;-81
2023/11/16 10:03:31;;;;;;;1.30;0.50;;;8.10;99.90;;;;;;4866758;29;20180;-81
2023/11/16 10:05:57;;;;;;;2.43;0.60;;;8.10;99.90;;;;;;4877626;29;20320;-83
2023/11/16 10:08:28;;;;;;;3.97;0.60;;;8.10;99.90;;;;;;4863490;29;20212;-83
2023/11/16 10:11:00;;;;;;;3.87;0.80;;;8.20;99.90;;;;;;4869887;29;20522;-82
2023/11/16 10:13:27;;;;;;;5.63;0.60;;;8.20;99.90;;;;;;4862920;29;21114;-83
2023/11/16 10:15:58;;;;;;;4.00;0.70;;;8.30;99.90;;;;;;4882289;29;20195;-82
2023/11/16 10:18:24;;;;;;;5.03;0.70;;;8.40;99.90;;;;;;4901969;29;20658;-82
2023/11/16 10:20:50;;;;;;;2.50;0.80;;;8.50;99.90;;;;;;4900000;29;20261;-82
2023/11/16 10:23:23;;;;;;;2.47;0.47;;;8.60;99.90;;;;;;4919146;29;20269;-82
2023/11/16 10:25:49;;;;;;;6.05;0.75;;;8.70;99.90;;;;;;4919342;29;20269;-83
2023/11/16 10:28:20;;;;;;;3.60;0.70;;;8.90;99.90;;;;;;4918807;29;20562;-82
2023/11/16 10:30:54;;;;;;;4.20;0.67;;;9.00;99.90;;;;;;4902220;29;20649;-82
2023/11/16 10:33:25;;;;;;;2.87;0.63;;;9.10;99.90;;;;;;4901911;29;20206;-80
2023/11/16 10:35:56;;;;;;;2.00;0.63;;;9.20;99.90;;;;;;4898806;29;20270;-82
2023/11/16 10:38:23;;;;;;;1.90;0.50;;;9.10;99.90;;;;;;4882529;29;20243;-82
2023/11/16 10:40:53;;;;;;;3.57;0.80;;;9.00;99.90;;;;;;4892633;29;20186;-82
2023/11/16 10:43:27;;;;;;;2.65;0.80;;;8.90;99.90;;;;;;4901992;29;20625;-81
2023/11/16 10:45:55;;;;;;;2.30;0.67;;;8.90;99.90;;;;;;4901194;29;20190;-81
2023/11/16 10:48:22;;;;;;;2.90;0.63;;;9.00;99.90;;;;;;4918353;29;20253;-82
2023/11/16 10:50:48;;;;;;;4.33;0.73;;;8.90;99.90;;;;;;4901805;29;20618;-81
2023/11/16 10:53:22;;;;;;;3.13;0.80;;;8.80;99.90;;;;;;4901451;29;20203;-84
2023/11/16 10:55:50;;;;;;;5.17;0.80;;;8.60;99.90;;;;;;4901769;29;20597;-80
2023/11/16 10:58:21;;;;;;;0.87;0.43;;;8.50;99.90;;;;;;4918316;29;20190;-82
2023/11/16 11:00:52;;;;;;;3.73;0.77;;;8.50;99.90;;;;;;4893874;29;20544;-82
2023/11/16 11:03:19;;;;;;;2.23;0.60;;;8.40;99.90;;;;;;4905717;29;20201;-82
2023/11/16 11:05:52;;;;;;;2.63;0.57;;;8.40;99.90;;;;;;4901080;29;20691;-82
2023/11/16 11:08:19;;;;;;;2.97;0.63;;;8.20;99.90;;;;;;4887573;29;20257;-82
2023/11/16 11:10:54;;;;;;;5.70;0.73;;;8.30;99.90;;;;;;4893981;29;20274;-81
2023/11/16 11:13:26;;;;;;;3.20;0.60;;;8.30;99.90;;;;;;4900095;29;20215;-80
2023/11/16 11:15:55;;;;;;;2.40;0.60;;;8.30;99.90;;;;;;4889540;29;20187;-83
2023/11/16 11:18:27;;;;;;;4.03;0.70;;;8.30;99.90;;;;;;4884292;29;20635;-83
2023/11/16 11:21:05;;;;;;;1.07;0.50;;;8.30;99.90;;;;;;4884730;29;20255;-81
2023/11/16 11:23:31;;;;;;;4.43;0.67;;;8.20;99.90;;;;;;4918023;29;20198;-82
2023/11/16 11:26:04;;;;;;;3.33;0.60;;;8.10;99.90;;;;;;4901842;29;20662;-83
2023/11/16 11:28:35;;;;;;;4.77;0.60;;;8.10;99.90;;;;;;4897359;29;20681;-85
2023/11/16 11:31:04;;;;;;;4.63;0.70;;;8.20;99.90;;;;;;4918081;29;20195;-83
2023/11/16 11:33:44;;;;;;;1.70;0.67;;;8.20;99.90;;;;;;4900786;29;20190;-82
2023/11/16 11:36:16;;;;;;;4.77;1.40;;;8.30;99.90;;;;;;4886465;29;20197;-82
2023/11/16 11:38:50;;;;;;;1.67;0.50;;;8.40;99.90;;;;;;4899698;29;20190;-85
2023/11/16 11:41:18;;;;;;;3.90;0.43;;;8.40;99.90;;;;;;4911028;29;20202;-82
2023/11/16 11:43:44;;;;;;;3.27;0.77;;;8.40;99.90;;;;;;4900980;29;20639;-83
2023/11/16 11:46:16;;;;;;;3.57;0.60;;;8.40;99.90;;;;;;4900819;29;20195;-82
2023/11/16 11:48:42;;;;;;;4.13;0.70;;;8.50;99.90;;;;;;4900235;29;20190;-88
2023/11/16 11:51:10;;;;;;;3.37;0.83;;;8.60;99.90;;;;;;4918342;29;20201;-85
2023/11/16 11:53:38;;;;;;;4.97;0.70;;;8.80;99.90;;;;;;4910129;29;20209;-84
2023/11/16 11:56:15;;;;;;;2.07;0.60;;;8.90;99.90;;;;;;4904135;29;20206;-91
2023/11/16 11:58:51;;;;;;;3.67;0.68;;;9.10;99.90;;;;;;4877154;29;20507;-82
2023/11/16 12:01:17;;;;;;;2.63;0.65;;;9.20;99.90;;;;;;4888310;29;20245;-86
2023/11/16 12:03:57;;;;;;;5.22;0.95;;;9.20;99.90;;;;;;4900698;29;20190;-82
2023/11/16 12:06:23;;;;;;;1.80;0.55;;;9.20;99.90;;;;;;4899593;29;20186;-82
2023/11/16 12:08:49;;;;;;;2.83;0.70;;;9.20;99.90;;;;;;4892084;29;20189;-86
2023/11/16 12:11:22;;;;;;;3.40;0.67;;;9.10;99.90;;;;;;4889764;29;20187;-81
2023/11/16 12:13:51;;;;;;;3.83;0.57;;;8.90;99.90;;;;;;4897628;29;20958;-81
2023/11/16 12:16:18;;;;;;;3.20;0.80;;;8.70;99.90;;;;;;4889375;29;20690;-80
2023/11/16 12:18:48;;;;;;;6.33;0.70;;;8.70;99.90;;;;;;4897019;29;20647;-81
2023/11/16 12:21:17;;;;;;;3.38;0.80;;;8.60;99.90;;;;;;4894498;29;20183;-81
2023/11/16 12:23:49;;;;;;;1.37;0.60;;;8.50;99.90;;;;;;4891030;29;20199;-83
2023/11/16 12:26:29;;;;;;;4.45;0.70;;;8.50;99.90;;;;;;4891632;29;20194;-81
2023/11/16 12:28:56;;;;;;;1.87;0.60;;;8.50;99.90;;;;;;4892390;29;20210;-80
2023/11/16 12:31:22;;;;;;;4.95;0.80;;;8.50;99.90;;;;;;4898473;29;20259;-84
2023/11/16 12:33:49;;;;;;;6.18;0.80;;;8.40;99.90;;;;;;4897212;29;20195;-83
2023/11/16 12:36:22;;;;;;;5.22;0.90;;;8.50;99.90;;;;;;4886215;29;20188;-81
2023/11/16 12:38:49;;;;;;;3.13;0.80;;;8.50;99.90;;;;;;4879906;29;20196;-84
2023/11/16 12:41:16;;;;;;;2.40;0.63;;;8.50;99.90;;;;;;4890228;29;20212;-81
2023/11/16 12:43:42;;;;;;;2.33;0.60;;;8.60;99.90;;;;;;4879143;29;20191;-86
2023/11/16 12:46:11;;;;;;;1.90;0.70;;;8.50;99.90;;;;;;4897453;29;20191;-83
2023/11/16 12:48:37;;;;;;;4.53;0.73;;;8.40;99.90;;;;;;4896412;29;20199;-84
2023/11/16 12:51:03;;;;;;;1.30;0.67;;;8.50;99.90;;;;;;4896550;29;20187;-82
2023/11/16 12:53:30;;;;;;;4.17;0.70;;;8.50;99.90;;;;;;4897781;29;20645;-84
2023/11/16 12:55:58;;;;;;;3.40;0.83;;;8.60;99.90;;;;;;4890327;29;20231;-82
2023/11/16 12:58:24;;;;;;;2.80;0.60;;;8.40;99.90;;;;;;4889324;29;20274;-81
2023/11/16 13:00:51;;;;;;;4.43;0.93;;;8.40;99.90;;;;;;4894153;29;20187;-79
2023/11/16 13:03:16;;;;;;;4.00;0.90;;;8.50;99.90;;;;;;4897701;29;20184;-80
2023/11/16 13:05:43;;;;;;;4.45;0.77;;;8.50;99.90;;;;;;4896816;29;20267;-79
2023/11/16 13:08:09;;;;;;;3.03;0.70;;;8.60;99.90;;;;;;4899562;29;20542;-79